Surface Preassure
0:00 UTC
12:00 UTC (Click for larger versions)
Andrewsfield Outlook

Current time:


  06:56:14am (GMT)      06:56:14am (UTC)


Headline: Early wintry showers soon clearing, then brightening up.

Today: A cold and cloudy start with some wintry showers, and possible ice on untreated surfaces. Showers soon clearing, then brightening up to give some sunshine by afternoon, and just the small risk of a coastal shower. Maximum Temperature 4C.

Tonight: Increasingly cloudy this evening, with outbreaks of rain and drizzle spreading from the west overnight. Some snow likely on hills at first, but temperatures slowly rising after an early frost. Minimum Temperature -2C.

Friday: Rather cloudy and breezy with some rain or drizzle, especially in the west, with eastern parts seeing some drier and brighter spells. Milder than of late. Maximum Temperature 11C.

Outlook for Saturday to Monday: Saturday windy with outbreaks of rain spreading east. Sunday colder with sunshine and blustery wintry showers. Monday starting frosty, then rain spreading east, preceded by sleet or snow in places.

Forecast

Weather warnings

Nearby METAR/TAF

Stansted (EGSS)


Current conditions: MVFR

METAR: EGSS 240650Z AUTO VRB03KT 5000 BR NCD M03/M03 Q1009

TAF: TAF EGSS 240503Z 2406/2512 23004KT 9999 FEW015 PROB40 TEMPO 2406/2411 4000 -SHRASN BR BKN006 PROB40 TEMPO 2411/2417 8000 BKN009 BECMG 2417/2420 0300 FG FZFG VV/// PROB40 TEMPO 2420/2503 1500 BR BKN002 BECMG 2503/2505 2000 BR OVC003 TEMPO 2505/2510 0300 DZ FG OVC000 BECMG 2510/2512 9999 NSW BKN005

Southend (EGMC)


Current conditions: MVFR

METAR: EGMC 240650Z 23002KT 8000 NSC M03/M04 Q1010

TAF: TAF EGMC 240500Z 2406/2415 27003KT 9999 FEW025 PROB30 2406/2409 4000 BR PROB30 TEMPO 2411/2415 8000 -SHRA BKN008

RAF Wattisham (EGUW)


Current conditions: IFR

METAR: EGUW 240550Z AUTO 25005KT 3700 BR BKN100/// M04/M04 Q1009

TAF: